Weather reports worldwide

Advertisment
Zugspitze, Germany (10961): temperature & dewpoint: 10.08.2018 18:00:00 - 16.08.2018 18:00:00 (CEST)Zugspitze, Germany (10961): wind speed & gusts: 10.08.2018 18:00:00 - 16.08.2018 18:00:00 (CEST)Zugspitze, Germany (10961): wind direction: 10.08.2018 18:00:00 - 16.08.2018 18:00:00 (CEST)Zugspitze, Germany (10961): sunshine duration: 10.08.2018 18:00:00 - 16.08.2018 18:00:00 (CEST)
Date & Time tt [°C] td [°C] ff [km/h] ff [kn] fx [km/h] fx [kn] dd sd [min]
16.08.2018 18:00:00 8,4 5,4 6 3 14 8 SW 20
16.08.2018 17:00:00 7,6 5,4 8 5 16 9 S 15
16.08.2018 16:00:00 7,7 3,9 11 6 30 16 SSE 39
16.08.2018 15:00:00 7,2 3,5 15 8 28 15 SSE 41
16.08.2018 14:00:00 7,1 3,3 14 8 28 15 SE 47
16.08.2018 13:00:00 7,1 3,2 12 7 24 13 SE 30
16.08.2018 12:00:00 6,5 -1,0 7 4 12 7 SSE 52
16.08.2018 11:00:00 5,4 -2,2 7 4 13 7 NNE 60
16.08.2018 10:00:00 5,6 -1,7 8 5 19 10 NW 60
16.08.2018 09:00:00 5,2 -2,7 15 8 19 10 W 60
16.08.2018 08:00:00 4,4 -6,9 14 7 16 9 WSW 60
16.08.2018 07:00:00 3,7 -5,1 13 7 17 9 WSW 29
16.08.2018 06:00:00 3,2 -4,1 9 5 15 8 W 0
16.08.2018 05:00:00 3,1 -3,3 14 8 26 14 W 0
16.08.2018 04:00:00 2,7 -1,6 18 10 23 12 WSW 0
16.08.2018 03:00:00 2,5 -0,9 18 10 23 12 W 0
16.08.2018 02:00:00 2,1 1,4 16 9 19 10 WSW 0
16.08.2018 01:00:00 2,1 1,2 13 7 20 11 WSW 0
16.08.2018 00:00:00 2,1 1,8 11 6 14 7 WSW 0
15.08.2018 23:00:00 2,3 2,1 10 6 18 10 W 0
15.08.2018 22:00:00 2,3 1,9 8 4 16 8 W 0
15.08.2018 21:00:00 2,6 2,5 9 5 14 7 NNW 0
15.08.2018 20:00:00 3,7 3,5 9 5 20 11 N 10
15.08.2018 19:00:00 4,0 3,7 7 4 16 9 N 5
15.08.2018 18:00:00 3,7 3,2 7 4 16 9 N 22
15.08.2018 17:00:00 3,7 1,5 4 2 15 8 N 15
15.08.2018 16:00:00 3,7 2,8 5 3 14 8 S 6
15.08.2018 15:00:00 3,7 1,4 5 3 16 9 NNW 18
15.08.2018 14:00:00 3,2 2,9 6 3 20 11 ENE 9
15.08.2018 13:00:00 3,3 2,6 8 4 19 10 SSE 0
15.08.2018 12:00:00 3,0 1,6 6 3 20 11 SSE 6
15.08.2018 11:00:00 2,4 1,4 6 3 22 12 S 19
15.08.2018 10:00:00 1,0 0,2 7 4 12 6 W 6
15.08.2018 09:00:00 1,6 0,9 4 2 12 7 SE 43
15.08.2018 08:00:00 1,3 -0,1 10 6 19 10 N 21
15.08.2018 07:00:00 0,5 0,4 7 4 14 7 NNW 0
15.08.2018 06:00:00 0,2 0,2 14 8 24 13 N 0
15.08.2018 05:00:00 0,8 0,7 18 10 22 12 N 0
15.08.2018 04:00:00 1,4 1,4 12 7 27 15 N 0
15.08.2018 03:00:00 1,2 1,2 10 6 25 14 N 0
15.08.2018 02:00:00 0,8 0,8 11 6 27 14 N 0
15.08.2018 01:00:00 1,4 1,4 10 6 26 14 N 0
15.08.2018 00:00:00 1,4 1,4 14 7 30 16 N 0
14.08.2018 23:00:00 0,8 0,8 11 6 27 15 N 0
14.08.2018 22:00:00 1,3 1,3 15 8 28 15 N 0
14.08.2018 21:00:00 1,3 1,2 16 9 29 15 N 0
14.08.2018 20:00:00 0,9 0,8 13 7 29 15 N 0
14.08.2018 19:00:00 1,5 1,4 16 9 29 16 N 0
14.08.2018 18:00:00 2,2 2,1 15 8 29 16 N 0
14.08.2018 17:00:00 2,0 2,0 13 7 29 15 N 2
14.08.2018 16:00:00 1,6 1,4 21 11 42 23 N 0
14.08.2018 15:00:00 1,3 1,1 22 12 34 18 N 0
14.08.2018 14:00:00 2,0 1,8 16 8 25 14 N 0
14.08.2018 13:00:00 3,2 3,2 10 5 32 18 N 9
14.08.2018 12:00:00 2,4 2,4 10 5 23 12 WNW 8
14.08.2018 11:00:00 2,4 2,3 14 8 31 17 NNW 0
14.08.2018 10:00:00 1,8 1,7 18 10 26 14 NNW 0
14.08.2018 09:00:00 2,0 2,0 10 5 23 12 N 0
14.08.2018 08:00:00 2,2 2,1 17 9 31 17 NNW 0
14.08.2018 07:00:00 2,0 2,0 21 12 32 17 WSW 0
14.08.2018 06:00:00 2,0 2,0 18 10 37 20 W 0
14.08.2018 05:00:00 2,1 2,0 25 13 47 25 NNW 0
14.08.2018 04:00:00 2,1 2,1 23 12 43 23 NW 0
14.08.2018 03:00:00 1,7 1,7 24 13 44 24 NW 0
14.08.2018 02:00:00 3,3 3,2 19 10 36 20 NNW 0
14.08.2018 01:00:00 3,0 3,0 21 11 40 22 WSW 0
14.08.2018 00:00:00 3,4 3,4 16 9 49 27 NW 0
13.08.2018 23:00:00 3,8 3,8 18 10 38 21 WNW 0
13.08.2018 22:00:00 4,3 4,3 15 8 39 21 W 0
13.08.2018 21:00:00 4,7 4,7 16 9 33 18 NNW 0
13.08.2018 20:00:00 4,3 4,3 18 10 48 26 NW 0
13.08.2018 19:00:00 4,7 4,7 25 13 47 26 SW 0
13.08.2018 18:00:00 4,7 4,6 22 12 44 24 W 0
13.08.2018 17:00:00 5,2 4,4 17 9 69 37 SSW 0
13.08.2018 16:00:00 5,9 5,7 10 5 35 19 NW 6
13.08.2018 15:00:00 8,2 6,8 22 12 40 22 SE 10
13.08.2018 14:00:00 7,2 6,2 21 11 36 19 SE 12
13.08.2018 13:00:00 7,2 5,0 23 13 41 22 SE 34
13.08.2018 12:00:00 7,5 5,0 23 12 36 19 SE 33
13.08.2018 11:00:00 7,4 2,6 7 4 14 8 SSE 39
13.08.2018 10:00:00 8,5 0,9 11 6 25 13 SSW 60
13.08.2018 09:00:00 7,2 0,1 18 10 30 16 WSW 60
13.08.2018 08:00:00 6,7 -0,1 21 12 35 19 WSW 59
13.08.2018 07:00:00 6,0 0,5 21 12 45 24 W 34
13.08.2018 06:00:00 5,5 1,9 24 13 37 20 WSW 0
13.08.2018 05:00:00 5,8 1,2 24 13 35 19 WSW 0
13.08.2018 04:00:00 5,7 2,1 19 11 41 22 WSW 0
13.08.2018 03:00:00 5,6 3,3 25 14 33 18 WSW 0
13.08.2018 02:00:00 6,0 3,2 25 13 39 21 WSW 0
13.08.2018 01:00:00 6,2 3,7 27 15 39 21 WSW 0
13.08.2018 00:00:00 6,5 3,4 26 14 44 24 W 0
12.08.2018 23:00:00 5,7 4,0 24 13 41 22 SSW 0
12.08.2018 22:00:00 6,7 6,3 5 3 13 7 N 0
12.08.2018 21:00:00 7,1 5,6 3 2 17 9 ESE 0
12.08.2018 20:00:00 8,0 6,7 9 5 13 7 S 0
12.08.2018 19:00:00 8,5 6,6 7 4 14 7 S 0
12.08.2018 18:00:00 9,0 7,1 9 5 17 9 S 0
12.08.2018 17:00:00 9,3 5,9 13 7 29 16 SE 21
12.08.2018 16:00:00 9,1 4,7 19 10 34 18 SE 31
12.08.2018 15:00:00 9,0 3,8 9 5 38 21 SSW 39
12.08.2018 14:00:00 8,4 2,6 25 14 59 32 SSE 59
12.08.2018 13:00:00 7,8 2,6 27 15 48 26 S 60
12.08.2018 12:00:00 7,3 1,0 33 18 51 27 SSE 60
12.08.2018 11:00:00 7,1 -0,8 28 15 52 28 SSE 60
12.08.2018 10:00:00 6,3 -0,1 30 16 48 26 SW 60
12.08.2018 09:00:00 6,2 -0,6 38 20 53 29 WSW 60
12.08.2018 08:00:00 5,3 0,1 40 21 55 30 WSW 60
12.08.2018 07:00:00 4,7 1,4 40 22 53 28 WSW 33
12.08.2018 06:00:00 4,6 1,6 38 21 54 29 WSW 0
12.08.2018 05:00:00 4,5 1,8 34 18 48 26 WSW 0
12.08.2018 04:00:00 4,2 2,4 37 20 46 25 SW 0
12.08.2018 03:00:00 4,0 0,3 34 18 40 21 SW 0
12.08.2018 02:00:00 3,6 0,7 31 17 39 21 SW 0
12.08.2018 01:00:00 3,3 0,1 25 14 36 20 WSW 0
12.08.2018 00:00:00 3,2 0,3 29 16 36 20 WSW 0
11.08.2018 23:00:00 2,6 1,0 24 13 32 18 SW 0
11.08.2018 22:00:00 2,3 1,8 25 14 33 18 WSW 0
11.08.2018 21:00:00 1,9 1,5 23 12 31 17 W 15
11.08.2018 20:00:00 2,2 1,9 13 7 29 16 NW 24
11.08.2018 19:00:00 3,2 3,0 20 11 40 22 NW 43
11.08.2018 18:00:00 2,5 0,6 26 14 39 21 W 42
11.08.2018 17:00:00 3,8 2,7 19 11 36 20 W 40
11.08.2018 16:00:00 3,7 1,8 14 7 32 17 WSW 42
11.08.2018 15:00:00 4,2 1,4 16 9 38 21 WSW 39
11.08.2018 14:00:00 4,6 3,1 14 8 35 19 SW 41
11.08.2018 13:00:00 3,7 1,8 15 8 34 19 SW 39
11.08.2018 12:00:00 2,8 0,2 23 12 36 20 WSW 54
11.08.2018 11:00:00 1,8 0,7 16 9 31 17 WSW 22
11.08.2018 10:00:00 1,5 1,0 11 6 27 15 NW 14
11.08.2018 09:00:00 1,6 1,2 13 7 27 15 W 28
11.08.2018 08:00:00 1,0 0,1 18 10 32 18 WSW 12
11.08.2018 07:00:00 1,8 1,4 29 15 37 20 WSW 13
11.08.2018 06:00:00 2,3 2,1 29 15 40 22 W 0
11.08.2018 05:00:00 2,3 1,9 35 19 43 23 WSW 0
11.08.2018 04:00:00 2,1 1,9 24 13 35 19 WSW 0
11.08.2018 03:00:00 2,1 2,0 26 14 35 19 WSW 0
11.08.2018 02:00:00 2,3 2,3 18 10 34 19 WNW 0
11.08.2018 01:00:00 2,6 2,5 19 10 34 19 WSW 0
11.08.2018 00:00:00 2,9 2,9 19 10 34 18 WSW 0
10.08.2018 23:00:00 3,0 3,0 25 13 37 20 WSW 0
10.08.2018 22:00:00 3,2 3,1 25 13 42 23 WSW 0
10.08.2018 21:00:00 3,5 3,5 21 11 29 15 WSW 0
10.08.2018 20:00:00 3,7 3,6 18 10 27 14 WSW 0
10.08.2018 19:00:00 4,2 4,1 18 10 24 13 WSW 1
10.08.2018 18:00:00 5,2 4,6 13 7 24 13 S 21

tt = temperature
td = dewpoint
ff = wind speed
fx = gusts
dd = wind direction
sd = sunshine duration

Next stations